sensor_id;sensor_type;location;lat;lon;timestamp;P1;durP1;ratioP1;P2;durP2;ratioP2
25990;SDS011;13779;-33.886;151.198;2022-12-20T00:02:11;13.60;;;1.98;;
25990;SDS011;13779;-33.886;151.198;2022-12-20T00:04:41;11.40;;;1.98;;
25990;SDS011;13779;-33.886;151.198;2022-12-20T00:07:11;12.18;;;1.92;;
25990;SDS011;13779;-33.886;151.198;2022-12-20T00:09:41;18.27;;;2.70;;
25990;SDS011;13779;-33.886;151.198;2022-12-20T00:12:11;9.70;;;2.10;;
25990;SDS011;13779;-33.886;151.198;2022-12-20T00:14:41;11.73;;;1.77;;
25990;SDS011;13779;-33.886;151.198;2022-12-20T00:17:11;8.30;;;2.00;;
25990;SDS011;13779;-33.886;151.198;2022-12-20T00:19:44;13.13;;;2.22;;
25990;SDS011;13779;-33.886;151.198;2022-12-20T00:22:14;9.55;;;2.20;;
25990;SDS011;13779;-33.886;151.198;2022-12-20T00:24:46;9.30;;;2.30;;
25990;SDS011;13779;-33.886;151.198;2022-12-20T00:29:46;14.27;;;1.95;;
25990;SDS011;13779;-33.886;151.198;2022-12-20T00:32:16;9.65;;;1.83;;
25990;SDS011;13779;-33.886;151.198;2022-12-20T00:34:47;11.30;;;2.10;;
25990;SDS011;13779;-33.886;151.198;2022-12-20T00:37:17;15.07;;;1.93;;
25990;SDS011;13779;-33.886;151.198;2022-12-20T00:39:48;19.30;;;2.92;;
25990;SDS011;13779;-33.886;151.198;2022-12-20T00:42:18;14.68;;;1.85;;
25990;SDS011;13779;-33.886;151.198;2022-12-20T00:44:49;8.18;;;2.22;;
25990;SDS011;13779;-33.886;151.198;2022-12-20T00:47:20;8.70;;;1.50;;
25990;SDS011;13779;-33.886;151.198;2022-12-20T00:49:52;17.48;;;2.28;;
25990;SDS011;13779;-33.886;151.198;2022-12-20T00:52:22;9.07;;;2.80;;
25990;SDS011;13779;-33.886;151.198;2022-12-20T00:54:53;9.82;;;2.20;;
25990;SDS011;13779;-33.886;151.198;2022-12-20T00:57:23;18.83;;;2.60;;
25990;SDS011;13779;-33.886;151.198;2022-12-20T00:59:54;9.90;;;2.08;;
25990;SDS011;13779;-33.886;151.198;2022-12-20T01:02:26;12.13;;;2.20;;
25990;SDS011;13779;-33.886;151.198;2022-12-20T01:04:57;11.75;;;2.47;;
25990;SDS011;13779;-33.886;151.198;2022-12-20T01:07:27;15.13;;;2.20;;
25990;SDS011;13779;-33.886;151.198;2022-12-20T01:09:58;11.43;;;1.67;;
25990;SDS011;13779;-33.886;151.198;2022-12-20T01:12:28;12.23;;;3.00;;
25990;SDS011;13779;-33.886;151.198;2022-12-20T01:14:59;11.13;;;1.70;;
25990;SDS011;13779;-33.886;151.198;2022-12-20T01:17:29;11.70;;;3.05;;
25990;SDS011;13779;-33.886;151.198;2022-12-20T01:20:00;9.70;;;2.30;;
25990;SDS011;13779;-33.886;151.198;2022-12-20T01:22:31;16.95;;;2.55;;
25990;SDS011;13779;-33.886;151.198;2022-12-20T01:25:04;12.38;;;2.47;;
25990;SDS011;13779;-33.886;151.198;2022-12-20T01:27:36;14.60;;;2.10;;
25990;SDS011;13779;-33.886;151.198;2022-12-20T01:30:06;13.48;;;2.08;;
25990;SDS011;13779;-33.886;151.198;2022-12-20T01:32:36;9.55;;;1.92;;
25990;SDS011;13779;-33.886;151.198;2022-12-20T01:35:07;7.75;;;1.90;;
25990;SDS011;13779;-33.886;151.198;2022-12-20T01:37:37;10.90;;;1.87;;
25990;SDS011;13779;-33.886;151.198;2022-12-20T01:40:09;14.38;;;2.88;;
25990;SDS011;13779;-33.886;151.198;2022-12-20T01:42:39;12.20;;;2.22;;
25990;SDS011;13779;-33.886;151.198;2022-12-20T01:45:12;10.98;;;2.03;;
25990;SDS011;13779;-33.886;151.198;2022-12-20T01:47:53;9.82;;;2.08;;
25990;SDS011;13779;-33.886;151.198;2022-12-20T01:50:25;9.88;;;1.83;;
25990;SDS011;13779;-33.886;151.198;2022-12-20T01:52:55;11.20;;;2.25;;
25990;SDS011;13779;-33.886;151.198;2022-12-20T01:55:27;15.73;;;2.40;;
25990;SDS011;13779;-33.886;151.198;2022-12-20T02:00:30;11.07;;;1.65;;
25990;SDS011;13779;-33.886;151.198;2022-12-20T02:03:02;11.73;;;2.03;;
25990;SDS011;13779;-33.886;151.198;2022-12-20T02:05:39;9.27;;;1.80;;
25990;SDS011;13779;-33.886;151.198;2022-12-20T02:08:15;11.13;;;2.10;;
25990;SDS011;13779;-33.886;151.198;2022-12-20T02:10:50;11.18;;;1.70;;
25990;SDS011;13779;-33.886;151.198;2022-12-20T02:16:18;7.90;;;1.65;;
25990;SDS011;13779;-33.886;151.198;2022-12-20T02:19:01;9.88;;;1.73;;
25990;SDS011;13779;-33.886;151.198;2022-12-20T02:21:42;11.52;;;1.83;;
25990;SDS011;13779;-33.886;151.198;2022-12-20T02:30:09;8.77;;;1.90;;
25990;SDS011;13779;-33.886;151.198;2022-12-20T02:35:44;9.75;;;1.73;;
25990;SDS011;13779;-33.886;151.198;2022-12-20T02:41:05;7.95;;;1.58;;
25990;SDS011;13779;-33.886;151.198;2022-12-20T02:43:43;11.95;;;2.13;;
25990;SDS011;13779;-33.886;151.198;2022-12-20T02:46:34;13.57;;;1.90;;
25990;SDS011;13779;-33.886;151.198;2022-12-20T02:49:07;8.63;;;1.90;;
25990;SDS011;13779;-33.886;151.198;2022-12-20T02:51:41;6.68;;;2.20;;
25990;SDS011;13779;-33.886;151.198;2022-12-20T02:54:15;9.18;;;1.70;;
25990;SDS011;13779;-33.886;151.198;2022-12-20T02:56:49;6.95;;;1.70;;
25990;SDS011;13779;-33.886;151.198;2022-12-20T03:02:32;9.03;;;1.57;;
25990;SDS011;13779;-33.886;151.198;2022-12-20T03:05:22;5.95;;;1.23;;
25990;SDS011;13779;-33.886;151.198;2022-12-20T03:07:58;9.65;;;1.50;;
25990;SDS011;13779;-33.886;151.198;2022-12-20T03:10:29;9.03;;;1.83;;
25990;SDS011;13779;-33.886;151.198;2022-12-20T03:12:59;9.48;;;1.73;;
25990;SDS011;13779;-33.886;151.198;2022-12-20T03:15:29;7.47;;;1.90;;
25990;SDS011;13779;-33.886;151.198;2022-12-20T03:17:59;6.45;;;1.67;;
25990;SDS011;13779;-33.886;151.198;2022-12-20T03:20:32;9.10;;;1.80;;
25990;SDS011;13779;-33.886;151.198;2022-12-20T03:23:03;6.30;;;1.48;;
25990;SDS011;13779;-33.886;151.198;2022-12-20T03:25:53;6.60;;;1.20;;
25990;SDS011;13779;-33.886;151.198;2022-12-20T03:28:24;10.07;;;3.15;;
25990;SDS011;13779;-33.886;151.198;2022-12-20T03:30:54;5.82;;;1.35;;
25990;SDS011;13779;-33.886;151.198;2022-12-20T03:33:24;12.32;;;1.77;;
25990;SDS011;13779;-33.886;151.198;2022-12-20T03:35:54;5.38;;;1.80;;
25990;SDS011;13779;-33.886;151.198;2022-12-20T03:38:24;6.53;;;1.63;;
25990;SDS011;13779;-33.886;151.198;2022-12-20T03:40:54;7.68;;;1.00;;
25990;SDS011;13779;-33.886;151.198;2022-12-20T03:43:24;6.10;;;1.45;;
25990;SDS011;13779;-33.886;151.198;2022-12-20T03:45:54;7.55;;;1.38;;
25990;SDS011;13779;-33.886;151.198;2022-12-20T03:48:25;8.85;;;1.40;;
25990;SDS011;13779;-33.886;151.198;2022-12-20T03:50:55;7.90;;;1.67;;
25990;SDS011;13779;-33.886;151.198;2022-12-20T03:53:25;4.43;;;1.20;;
25990;SDS011;13779;-33.886;151.198;2022-12-20T03:55:55;5.20;;;1.27;;
25990;SDS011;13779;-33.886;151.198;2022-12-20T03:58:30;4.18;;;1.27;;
25990;SDS011;13779;-33.886;151.198;2022-12-20T04:01:01;8.88;;;1.23;;
25990;SDS011;13779;-33.886;151.198;2022-12-20T04:03:43;10.13;;;1.65;;
25990;SDS011;13779;-33.886;151.198;2022-12-20T04:06:14;7.83;;;1.47;;
25990;SDS011;13779;-33.886;151.198;2022-12-20T04:08:44;3.78;;;0.90;;
25990;SDS011;13779;-33.886;151.198;2022-12-20T04:11:15;4.37;;;1.20;;
25990;SDS011;13779;-33.886;151.198;2022-12-20T04:13:46;5.53;;;1.02;;
25990;SDS011;13779;-33.886;151.198;2022-12-20T04:16:17;5.03;;;1.13;;
25990;SDS011;13779;-33.886;151.198;2022-12-20T04:18:49;3.10;;;1.05;;
25990;SDS011;13779;-33.886;151.198;2022-12-20T04:21:23;5.05;;;0.90;;
25990;SDS011;13779;-33.886;151.198;2022-12-20T04:23:59;4.97;;;1.30;;
25990;SDS011;13779;-33.886;151.198;2022-12-20T04:26:30;3.85;;;1.20;;
25990;SDS011;13779;-33.886;151.198;2022-12-20T04:29:00;5.22;;;0.90;;
25990;SDS011;13779;-33.886;151.198;2022-12-20T04:31:31;5.05;;;0.80;;
25990;SDS011;13779;-33.886;151.198;2022-12-20T04:34:01;6.05;;;1.48;;
25990;SDS011;13779;-33.886;151.198;2022-12-20T04:36:32;7.22;;;1.00;;
25990;SDS011;13779;-33.886;151.198;2022-12-20T04:39:02;6.47;;;1.27;;
25990;SDS011;13779;-33.886;151.198;2022-12-20T04:41:32;5.85;;;1.00;;
25990;SDS011;13779;-33.886;151.198;2022-12-20T04:44:03;3.90;;;1.15;;
25990;SDS011;13779;-33.886;151.198;2022-12-20T04:46:33;5.47;;;1.05;;
25990;SDS011;13779;-33.886;151.198;2022-12-20T04:49:03;6.00;;;1.40;;
25990;SDS011;13779;-33.886;151.198;2022-12-20T04:51:34;1.95;;;0.63;;
25990;SDS011;13779;-33.886;151.198;2022-12-20T04:54:04;5.20;;;1.67;;
25990;SDS011;13779;-33.886;151.198;2022-12-20T04:56:34;4.70;;;1.05;;
25990;SDS011;13779;-33.886;151.198;2022-12-20T04:59:04;6.35;;;1.08;;
25990;SDS011;13779;-33.886;151.198;2022-12-20T05:01:34;7.15;;;1.20;;
25990;SDS011;13779;-33.886;151.198;2022-12-20T05:04:04;9.13;;;1.45;;
25990;SDS011;13779;-33.886;151.198;2022-12-20T05:06:34;5.65;;;1.15;;
25990;SDS011;13779;-33.886;151.198;2022-12-20T05:09:05;3.78;;;1.20;;
25990;SDS011;13779;-33.886;151.198;2022-12-20T05:11:35;4.90;;;1.08;;
25990;SDS011;13779;-33.886;151.198;2022-12-20T05:14:05;4.72;;;1.15;;
25990;SDS011;13779;-33.886;151.198;2022-12-20T05:16:35;5.38;;;1.35;;
25990;SDS011;13779;-33.886;151.198;2022-12-20T05:19:05;3.37;;;1.43;;
25990;SDS011;13779;-33.886;151.198;2022-12-20T05:21:35;3.55;;;0.95;;
25990;SDS011;13779;-33.886;151.198;2022-12-20T05:24:24;5.60;;;0.90;;
25990;SDS011;13779;-33.886;151.198;2022-12-20T05:27:12;7.32;;;1.50;;
25990;SDS011;13779;-33.886;151.198;2022-12-20T05:29:43;7.00;;;1.10;;
25990;SDS011;13779;-33.886;151.198;2022-12-20T05:32:13;5.57;;;1.27;;
25990;SDS011;13779;-33.886;151.198;2022-12-20T05:34:43;6.50;;;1.30;;
25990;SDS011;13779;-33.886;151.198;2022-12-20T05:37:13;6.43;;;1.50;;
25990;SDS011;13779;-33.886;151.198;2022-12-20T05:39:43;6.28;;;1.27;;
25990;SDS011;13779;-33.886;151.198;2022-12-20T05:42:14;6.30;;;1.75;;
25990;SDS011;13779;-33.886;151.198;2022-12-20T05:44:44;6.22;;;1.42;;
25990;SDS011;13779;-33.886;151.198;2022-12-20T05:47:14;7.07;;;1.38;;
25990;SDS011;13779;-33.886;151.198;2022-12-20T05:49:44;7.25;;;2.33;;
25990;SDS011;13779;-33.886;151.198;2022-12-20T05:52:14;8.88;;;1.42;;
25990;SDS011;13779;-33.886;151.198;2022-12-20T05:54:44;6.97;;;1.30;;
25990;SDS011;13779;-33.886;151.198;2022-12-20T05:57:14;6.75;;;1.42;;
25990;SDS011;13779;-33.886;151.198;2022-12-20T05:59:45;4.50;;;1.48;;
25990;SDS011;13779;-33.886;151.198;2022-12-20T06:02:15;5.03;;;1.08;;
25990;SDS011;13779;-33.886;151.198;2022-12-20T06:04:46;7.65;;;1.50;;
25990;SDS011;13779;-33.886;151.198;2022-12-20T06:07:16;7.95;;;1.10;;
25990;SDS011;13779;-33.886;151.198;2022-12-20T06:09:46;7.28;;;1.20;;
25990;SDS011;13779;-33.886;151.198;2022-12-20T06:12:16;6.20;;;1.30;;
25990;SDS011;13779;-33.886;151.198;2022-12-20T06:14:47;5.50;;;0.90;;
25990;SDS011;13779;-33.886;151.198;2022-12-20T06:17:17;7.97;;;1.48;;
25990;SDS011;13779;-33.886;151.198;2022-12-20T06:19:49;5.28;;;1.55;;
25990;SDS011;13779;-33.886;151.198;2022-12-20T06:22:19;3.97;;;1.65;;
25990;SDS011;13779;-33.886;151.198;2022-12-20T06:24:49;7.63;;;1.55;;
25990;SDS011;13779;-33.886;151.198;2022-12-20T06:27:20;6.80;;;0.98;;
25990;SDS011;13779;-33.886;151.198;2022-12-20T06:29:50;5.47;;;1.17;;
25990;SDS011;13779;-33.886;151.198;2022-12-20T06:32:21;5.28;;;1.30;;
25990;SDS011;13779;-33.886;151.198;2022-12-20T06:34:51;7.78;;;1.10;;
25990;SDS011;13779;-33.886;151.198;2022-12-20T06:37:22;3.97;;;1.08;;
25990;SDS011;13779;-33.886;151.198;2022-12-20T06:39:52;6.85;;;1.08;;
25990;SDS011;13779;-33.886;151.198;2022-12-20T06:42:22;11.20;;;1.80;;
25990;SDS011;13779;-33.886;151.198;2022-12-20T06:44:52;4.93;;;1.23;;
25990;SDS011;13779;-33.886;151.198;2022-12-20T06:47:22;5.88;;;0.80;;
25990;SDS011;13779;-33.886;151.198;2022-12-20T06:49:52;5.63;;;1.40;;
25990;SDS011;13779;-33.886;151.198;2022-12-20T06:52:22;10.63;;;1.50;;
25990;SDS011;13779;-33.886;151.198;2022-12-20T06:54:52;5.57;;;1.13;;
25990;SDS011;13779;-33.886;151.198;2022-12-20T06:57:23;4.78;;;1.10;;
25990;SDS011;13779;-33.886;151.198;2022-12-20T06:59:53;3.47;;;1.00;;
25990;SDS011;13779;-33.886;151.198;2022-12-20T07:02:26;6.32;;;1.00;;
25990;SDS011;13779;-33.886;151.198;2022-12-20T07:04:56;6.40;;;0.88;;
25990;SDS011;13779;-33.886;151.198;2022-12-20T07:07:26;3.33;;;0.95;;
25990;SDS011;13779;-33.886;151.198;2022-12-20T07:10:04;3.55;;;1.10;;
25990;SDS011;13779;-33.886;151.198;2022-12-20T07:12:35;3.85;;;0.90;;
25990;SDS011;13779;-33.886;151.198;2022-12-20T07:15:13;6.35;;;0.95;;
25990;SDS011;13779;-33.886;151.198;2022-12-20T07:17:43;5.20;;;1.02;;
25990;SDS011;13779;-33.886;151.198;2022-12-20T07:20:14;4.03;;;0.98;;
25990;SDS011;13779;-33.886;151.198;2022-12-20T07:22:46;3.72;;;0.80;;
25990;SDS011;13779;-33.886;151.198;2022-12-20T07:25:16;4.75;;;1.20;;
25990;SDS011;13779;-33.886;151.198;2022-12-20T07:27:48;4.25;;;1.00;;
25990;SDS011;13779;-33.886;151.198;2022-12-20T07:30:19;3.30;;;1.00;;
25990;SDS011;13779;-33.886;151.198;2022-12-20T07:32:50;6.53;;;0.98;;
25990;SDS011;13779;-33.886;151.198;2022-12-20T07:35:21;5.35;;;1.52;;
25990;SDS011;13779;-33.886;151.198;2022-12-20T07:37:54;4.40;;;0.85;;
25990;SDS011;13779;-33.886;151.198;2022-12-20T07:40:25;6.65;;;1.10;;
25990;SDS011;13779;-33.886;151.198;2022-12-20T07:42:55;3.20;;;0.83;;
25990;SDS011;13779;-33.886;151.198;2022-12-20T07:45:26;9.05;;;1.83;;
25990;SDS011;13779;-33.886;151.198;2022-12-20T07:47:57;3.03;;;0.90;;
25990;SDS011;13779;-33.886;151.198;2022-12-20T07:50:35;3.22;;;1.25;;
25990;SDS011;13779;-33.886;151.198;2022-12-20T07:53:05;2.08;;;0.73;;
25990;SDS011;13779;-33.886;151.198;2022-12-20T07:55:37;4.97;;;0.93;;
25990;SDS011;13779;-33.886;151.198;2022-12-20T07:58:10;3.08;;;0.93;;
25990;SDS011;13779;-33.886;151.198;2022-12-20T08:00:42;2.33;;;0.70;;
25990;SDS011;13779;-33.886;151.198;2022-12-20T08:03:17;3.35;;;1.00;;
25990;SDS011;13779;-33.886;151.198;2022-12-20T08:05:52;3.15;;;0.90;;
25990;SDS011;13779;-33.886;151.198;2022-12-20T08:08:26;4.05;;;1.08;;
25990;SDS011;13779;-33.886;151.198;2022-12-20T08:10:56;3.47;;;1.10;;
25990;SDS011;13779;-33.886;151.198;2022-12-20T08:13:27;3.80;;;1.00;;
25990;SDS011;13779;-33.886;151.198;2022-12-20T08:15:58;5.75;;;1.13;;
25990;SDS011;13779;-33.886;151.198;2022-12-20T08:18:29;7.47;;;1.60;;
25990;SDS011;13779;-33.886;151.198;2022-12-20T08:20:59;5.32;;;1.55;;
25990;SDS011;13779;-33.886;151.198;2022-12-20T08:23:33;6.00;;;1.20;;
25990;SDS011;13779;-33.886;151.198;2022-12-20T08:26:04;2.78;;;0.98;;
25990;SDS011;13779;-33.886;151.198;2022-12-20T08:28:34;3.45;;;1.00;;
25990;SDS011;13779;-33.886;151.198;2022-12-20T08:31:07;5.18;;;1.38;;
25990;SDS011;13779;-33.886;151.198;2022-12-20T08:33:40;7.78;;;1.48;;
25990;SDS011;13779;-33.886;151.198;2022-12-20T08:36:11;4.40;;;1.50;;
25990;SDS011;13779;-33.886;151.198;2022-12-20T08:41:13;8.05;;;1.20;;
25990;SDS011;13779;-33.886;151.198;2022-12-20T08:43:44;11.43;;;2.38;;
25990;SDS011;13779;-33.886;151.198;2022-12-20T08:46:15;5.35;;;1.33;;
25990;SDS011;13779;-33.886;151.198;2022-12-20T08:48:46;7.40;;;0.85;;
25990;SDS011;13779;-33.886;151.198;2022-12-20T08:51:16;3.60;;;1.03;;
25990;SDS011;13779;-33.886;151.198;2022-12-20T08:53:47;3.33;;;1.20;;
25990;SDS011;13779;-33.886;151.198;2022-12-20T08:56:17;4.70;;;1.25;;
25990;SDS011;13779;-33.886;151.198;2022-12-20T08:58:48;6.45;;;1.65;;
25990;SDS011;13779;-33.886;151.198;2022-12-20T09:01:19;6.45;;;1.40;;
25990;SDS011;13779;-33.886;151.198;2022-12-20T09:03:51;4.28;;;1.35;;
25990;SDS011;13779;-33.886;151.198;2022-12-20T09:06:22;4.68;;;1.02;;
25990;SDS011;13779;-33.886;151.198;2022-12-20T09:08:52;3.88;;;1.10;;
25990;SDS011;13779;-33.886;151.198;2022-12-20T09:11:24;2.90;;;1.08;;
25990;SDS011;13779;-33.886;151.198;2022-12-20T09:13:55;6.70;;;1.08;;
25990;SDS011;13779;-33.886;151.198;2022-12-20T09:16:29;5.60;;;1.13;;
25990;SDS011;13779;-33.886;151.198;2022-12-20T09:19:00;6.28;;;1.15;;
25990;SDS011;13779;-33.886;151.198;2022-12-20T09:21:33;4.63;;;1.10;;
25990;SDS011;13779;-33.886;151.198;2022-12-20T09:27:10;8.23;;;1.75;;
25990;SDS011;13779;-33.886;151.198;2022-12-20T09:29:40;4.25;;;1.08;;
25990;SDS011;13779;-33.886;151.198;2022-12-20T09:32:11;4.25;;;1.20;;
25990;SDS011;13779;-33.886;151.198;2022-12-20T09:34:42;7.88;;;1.30;;
25990;SDS011;13779;-33.886;151.198;2022-12-20T09:37:12;4.05;;;1.20;;
25990;SDS011;13779;-33.886;151.198;2022-12-20T09:39:42;6.75;;;1.45;;
25990;SDS011;13779;-33.886;151.198;2022-12-20T09:42:20;5.32;;;1.40;;
25990;SDS011;13779;-33.886;151.198;2022-12-20T09:45:05;4.38;;;1.00;;
25990;SDS011;13779;-33.886;151.198;2022-12-20T09:47:37;3.47;;;1.48;;
25990;SDS011;13779;-33.886;151.198;2022-12-20T09:50:10;4.18;;;1.20;;
25990;SDS011;13779;-33.886;151.198;2022-12-20T09:52:52;6.93;;;1.15;;
25990;SDS011;13779;-33.886;151.198;2022-12-20T09:56:04;7.10;;;2.17;;
25990;SDS011;13779;-33.886;151.198;2022-12-20T09:59:04;7.85;;;1.02;;
25990;SDS011;13779;-33.886;151.198;2022-12-20T10:01:40;4.90;;;1.20;;
25990;SDS011;13779;-33.886;151.198;2022-12-20T10:04:26;6.40;;;1.30;;
25990;SDS011;13779;-33.886;151.198;2022-12-20T10:07:21;5.80;;;1.20;;
25990;SDS011;13779;-33.886;151.198;2022-12-20T10:21:46;9.05;;;2.28;;
25990;SDS011;13779;-33.886;151.198;2022-12-20T10:24:19;6.43;;;1.67;;
25990;SDS011;13779;-33.886;151.198;2022-12-20T10:27:18;4.57;;;1.20;;
25990;SDS011;13779;-33.886;151.198;2022-12-20T10:29:49;5.00;;;1.52;;
25990;SDS011;13779;-33.886;151.198;2022-12-20T10:32:21;7.90;;;4.90;;
25990;SDS011;13779;-33.886;151.198;2022-12-20T10:34:59;5.88;;;1.60;;
25990;SDS011;13779;-33.886;151.198;2022-12-20T10:38:00;9.55;;;1.27;;
25990;SDS011;13779;-33.886;151.198;2022-12-20T10:40:35;6.28;;;1.60;;
25990;SDS011;13779;-33.886;151.198;2022-12-20T10:43:27;4.45;;;1.45;;
25990;SDS011;13779;-33.886;151.198;2022-12-20T10:46:07;6.47;;;1.23;;
25990;SDS011;13779;-33.886;151.198;2022-12-20T10:48:39;9.13;;;1.65;;
25990;SDS011;13779;-33.886;151.198;2022-12-20T10:53:56;7.97;;;2.15;;
25990;SDS011;13779;-33.886;151.198;2022-12-20T10:56:27;9.38;;;1.80;;
25990;SDS011;13779;-33.886;151.198;2022-12-20T11:01:46;3.60;;;2.00;;
25990;SDS011;13779;-33.886;151.198;2022-12-20T11:04:26;4.07;;;1.88;;
25990;SDS011;13779;-33.886;151.198;2022-12-20T11:07:00;5.43;;;1.60;;
25990;SDS011;13779;-33.886;151.198;2022-12-20T11:09:59;4.68;;;1.45;;
25990;SDS011;13779;-33.886;151.198;2022-12-20T11:12:54;6.90;;;2.03;;
25990;SDS011;13779;-33.886;151.198;2022-12-20T11:15:27;5.15;;;1.85;;
25990;SDS011;13779;-33.886;151.198;2022-12-20T11:26:21;2.83;;;1.50;;
25990;SDS011;13779;-33.886;151.198;2022-12-20T11:42:54;4.55;;;1.30;;
25990;SDS011;13779;-33.886;151.198;2022-12-20T11:48:44;7.70;;;2.40;;
25990;SDS011;13779;-33.886;151.198;2022-12-20T11:51:41;4.00;;;1.80;;
25990;SDS011;13779;-33.886;151.198;2022-12-20T11:56:59;6.90;;;2.40;;
25990;SDS011;13779;-33.886;151.198;2022-12-20T12:02:13;7.40;;;2.20;;
25990;SDS011;13779;-33.886;151.198;2022-12-20T12:05:04;5.43;;;1.45;;
25990;SDS011;13779;-33.886;151.198;2022-12-20T12:07:43;12.88;;;2.53;;
25990;SDS011;13779;-33.886;151.198;2022-12-20T12:10:23;5.88;;;2.25;;
25990;SDS011;13779;-33.886;151.198;2022-12-20T12:16:02;8.27;;;1.83;;
25990;SDS011;13779;-33.886;151.198;2022-12-20T12:18:54;8.07;;;1.77;;
25990;SDS011;13779;-33.886;151.198;2022-12-20T12:21:27;6.20;;;1.55;;
25990;SDS011;13779;-33.886;151.198;2022-12-20T12:24:31;7.78;;;1.88;;
25990;SDS011;13779;-33.886;151.198;2022-12-20T12:27:13;5.60;;;2.00;;
25990;SDS011;13779;-33.886;151.198;2022-12-20T12:29:53;5.85;;;2.08;;
25990;SDS011;13779;-33.886;151.198;2022-12-20T12:32:30;4.05;;;1.50;;
25990;SDS011;13779;-33.886;151.198;2022-12-20T12:43:53;8.45;;;1.27;;
25990;SDS011;13779;-33.886;151.198;2022-12-20T12:46:29;8.57;;;2.05;;
25990;SDS011;13779;-33.886;151.198;2022-12-20T12:49:08;10.40;;;2.05;;
25990;SDS011;13779;-33.886;151.198;2022-12-20T12:51:53;5.70;;;1.60;;
25990;SDS011;13779;-33.886;151.198;2022-12-20T12:57:13;8.20;;;1.53;;
25990;SDS011;13779;-33.886;151.198;2022-12-20T12:59:47;8.57;;;2.00;;
25990;SDS011;13779;-33.886;151.198;2022-12-20T13:02:23;6.57;;;1.67;;
25990;SDS011;13779;-33.886;151.198;2022-12-20T13:20:24;3.85;;;1.33;;
25990;SDS011;13779;-33.886;151.198;2022-12-20T13:25:40;9.20;;;1.40;;
25990;SDS011;13779;-33.886;151.198;2022-12-20T13:33:49;4.05;;;1.60;;
25990;SDS011;13779;-33.886;151.198;2022-12-20T13:39:29;3.35;;;0.80;;
25990;SDS011;13779;-33.886;151.198;2022-12-20T13:42:12;4.65;;;1.25;;
25990;SDS011;13779;-33.886;151.198;2022-12-20T13:44:55;7.55;;;1.20;;
25990;SDS011;13779;-33.886;151.198;2022-12-20T13:47:37;4.80;;;1.70;;
25990;SDS011;13779;-33.886;151.198;2022-12-20T13:50:21;3.38;;;1.23;;
25990;SDS011;13779;-33.886;151.198;2022-12-20T13:52:55;5.10;;;1.20;;
25990;SDS011;13779;-33.886;151.198;2022-12-20T13:55:30;6.63;;;1.00;;
25990;SDS011;13779;-33.886;151.198;2022-12-20T13:58:16;8.20;;;1.65;;
25990;SDS011;13779;-33.886;151.198;2022-12-20T14:00:53;7.18;;;1.92;;
25990;SDS011;13779;-33.886;151.198;2022-12-20T14:03:34;6.70;;;1.17;;
25990;SDS011;13779;-33.886;151.198;2022-12-20T14:06:11;3.42;;;0.68;;
25990;SDS011;13779;-33.886;151.198;2022-12-20T14:08:50;3.17;;;1.20;;
25990;SDS011;13779;-33.886;151.198;2022-12-20T14:11:21;1.75;;;1.10;;
25990;SDS011;13779;-33.886;151.198;2022-12-20T14:14:11;4.75;;;1.20;;
25990;SDS011;13779;-33.886;151.198;2022-12-20T14:16:43;3.45;;;1.20;;
25990;SDS011;13779;-33.886;151.198;2022-12-20T14:19:14;5.95;;;1.10;;
25990;SDS011;13779;-33.886;151.198;2022-12-20T14:21:44;5.53;;;1.13;;
25990;SDS011;13779;-33.886;151.198;2022-12-20T14:24:17;6.00;;;1.40;;
25990;SDS011;13779;-33.886;151.198;2022-12-20T14:26:50;6.50;;;1.48;;
25990;SDS011;13779;-33.886;151.198;2022-12-20T14:29:24;3.42;;;1.23;;
25990;SDS011;13779;-33.886;151.198;2022-12-20T14:31:59;4.72;;;1.00;;
25990;SDS011;13779;-33.886;151.198;2022-12-20T14:34:30;6.17;;;1.40;;
25990;SDS011;13779;-33.886;151.198;2022-12-20T14:37:23;6.47;;;0.80;;
25990;SDS011;13779;-33.886;151.198;2022-12-20T14:42:44;4.50;;;1.05;;
25990;SDS011;13779;-33.886;151.198;2022-12-20T14:45:25;7.05;;;0.90;;
25990;SDS011;13779;-33.886;151.198;2022-12-20T14:47:57;5.78;;;0.95;;
25990;SDS011;13779;-33.886;151.198;2022-12-20T14:50:35;4.90;;;1.40;;
25990;SDS011;13779;-33.886;151.198;2022-12-20T14:53:19;5.03;;;1.70;;
25990;SDS011;13779;-33.886;151.198;2022-12-20T14:55:56;5.38;;;1.10;;
25990;SDS011;13779;-33.886;151.198;2022-12-20T14:58:28;5.07;;;1.60;;
25990;SDS011;13779;-33.886;151.198;2022-12-20T15:01:24;6.18;;;1.15;;
25990;SDS011;13779;-33.886;151.198;2022-12-20T15:04:00;5.30;;;1.52;;
25990;SDS011;13779;-33.886;151.198;2022-12-20T15:09:15;5.10;;;1.10;;
25990;SDS011;13779;-33.886;151.198;2022-12-20T15:14:35;4.72;;;1.30;;
25990;SDS011;13779;-33.886;151.198;2022-12-20T15:17:09;7.18;;;1.67;;
25990;SDS011;13779;-33.886;151.198;2022-12-20T15:19:44;4.65;;;1.20;;
25990;SDS011;13779;-33.886;151.198;2022-12-20T15:22:16;7.15;;;1.05;;
25990;SDS011;13779;-33.886;151.198;2022-12-20T15:24:48;5.03;;;1.20;;
25990;SDS011;13779;-33.886;151.198;2022-12-20T15:27:19;3.90;;;1.20;;
25990;SDS011;13779;-33.886;151.198;2022-12-20T15:29:51;5.78;;;1.65;;
25990;SDS011;13779;-33.886;151.198;2022-12-20T15:32:25;4.80;;;1.00;;
25990;SDS011;13779;-33.886;151.198;2022-12-20T15:34:58;3.67;;;1.17;;
25990;SDS011;13779;-33.886;151.198;2022-12-20T15:37:28;2.87;;;1.03;;
25990;SDS011;13779;-33.886;151.198;2022-12-20T15:39:59;4.43;;;1.55;;
25990;SDS011;13779;-33.886;151.198;2022-12-20T15:42:30;6.30;;;1.73;;
25990;SDS011;13779;-33.886;151.198;2022-12-20T15:45:00;2.70;;;0.70;;
25990;SDS011;13779;-33.886;151.198;2022-12-20T15:47:32;5.10;;;2.00;;
25990;SDS011;13779;-33.886;151.198;2022-12-20T15:50:03;3.70;;;1.45;;
25990;SDS011;13779;-33.886;151.198;2022-12-20T15:52:34;3.47;;;1.30;;
25990;SDS011;13779;-33.886;151.198;2022-12-20T15:55:05;4.73;;;1.73;;
25990;SDS011;13779;-33.886;151.198;2022-12-20T15:57:38;7.00;;;1.88;;
25990;SDS011;13779;-33.886;151.198;2022-12-20T16:00:10;4.83;;;1.20;;
25990;SDS011;13779;-33.886;151.198;2022-12-20T16:02:48;5.88;;;1.20;;
25990;SDS011;13779;-33.886;151.198;2022-12-20T16:05:18;3.60;;;1.40;;
25990;SDS011;13779;-33.886;151.198;2022-12-20T16:07:49;3.78;;;1.35;;
25990;SDS011;13779;-33.886;151.198;2022-12-20T16:10:20;3.60;;;1.00;;
25990;SDS011;13779;-33.886;151.198;2022-12-20T16:12:51;5.53;;;1.52;;
25990;SDS011;13779;-33.886;151.198;2022-12-20T16:17:54;4.55;;;1.67;;
25990;SDS011;13779;-33.886;151.198;2022-12-20T16:20:24;5.13;;;1.47;;
25990;SDS011;13779;-33.886;151.198;2022-12-20T16:22:57;8.27;;;1.60;;
25990;SDS011;13779;-33.886;151.198;2022-12-20T16:25:29;5.63;;;1.33;;
25990;SDS011;13779;-33.886;151.198;2022-12-20T16:28:01;4.93;;;1.30;;
25990;SDS011;13779;-33.886;151.198;2022-12-20T16:30:32;4.32;;;1.20;;
25990;SDS011;13779;-33.886;151.198;2022-12-20T16:33:03;6.77;;;1.60;;
25990;SDS011;13779;-33.886;151.198;2022-12-20T16:35:34;3.60;;;2.20;;
25990;SDS011;13779;-33.886;151.198;2022-12-20T16:38:05;4.38;;;1.30;;
25990;SDS011;13779;-33.886;151.198;2022-12-20T16:43:08;6.03;;;1.70;;
25990;SDS011;13779;-33.886;151.198;2022-12-20T16:45:45;6.13;;;1.27;;
25990;SDS011;13779;-33.886;151.198;2022-12-20T16:48:15;8.20;;;1.30;;
25990;SDS011;13779;-33.886;151.198;2022-12-20T16:50:46;1.67;;;0.70;;
25990;SDS011;13779;-33.886;151.198;2022-12-20T16:53:16;6.47;;;1.97;;
25990;SDS011;13779;-33.886;151.198;2022-12-20T16:58:18;3.40;;;1.52;;